Time;durP1;ratioP1;P1;durP2;ratioP2;P2;SDS_P1;SDS_P2;PMS_P1;PMS_P2;Temp;Humidity;BMP_temperature;BMP_pressure;BME280_temperature;BME280_humidity;BME280_pressure;Samples;Min_cycle;Max_cycle;Signal;HPM_P1;HPM_P2
2023/10/11 00:00:41;;;;;;;10.93;10.23;;;;;;;12.17;93.38;93485.16;5061951;28;20170;-75
2023/10/11 00:03:18;;;;;;;11.43;10.53;;;;;;;12.13;93.94;93484.09;5067706;28;20300;-78
2023/10/11 00:05:47;;;;;;;10.17;9.47;;;;;;;12.19;93.53;93477.78;5072967;28;20178;-78
2023/10/11 00:08:17;;;;;;;10.87;10.17;;;;;;;12.15;93.53;93474.16;5050761;28;20248;-78
2023/10/11 00:10:53;;;;;;;10.63;10.00;;;;;;;11.98;93.98;93461.38;5037232;28;20193;-77
2023/10/11 00:13:23;;;;;;;11.03;10.27;;;;;;;12.08;93.79;93476.25;5065938;28;20227;-78
2023/10/11 00:15:50;;;;;;;12.13;11.10;;;;;;;12.13;93.20;93473.63;5067740;28;20216;-78
2023/10/11 00:18:21;;;;;;;10.10;9.50;;;;;;;12.12;92.97;93461.59;5065729;28;20221;-78
2023/10/11 00:20:51;;;;;;;10.27;9.57;;;;;;;12.12;92.85;93465.00;5065411;28;20227;-78
2023/10/11 00:23:22;;;;;;;10.80;10.03;;;;;;;12.14;92.41;93470.75;5067779;28;20228;-77
2023/10/11 00:25:50;;;;;;;9.93;9.27;;;;;;;12.16;92.32;93470.47;5057194;28;20229;-78
2023/10/11 00:28:17;;;;;;;10.43;9.83;;;;;;;12.19;91.87;93467.31;5068163;28;20913;-78
2023/10/11 00:30:46;;;;;;;9.80;9.30;;;;;;;12.18;91.69;93473.63;5068379;28;20182;-78
2023/10/11 00:33:12;;;;;;;10.67;10.03;;;;;;;12.18;92.48;93476.25;5071486;28;20225;-78
2023/10/11 00:35:48;;;;;;;10.63;10.03;;;;;;;12.27;91.43;93470.19;5063360;28;20212;-77
2023/10/11 00:38:20;;;;;;;11.03;10.50;;;;;;;12.12;91.93;93467.63;5069382;28;20225;-78
2023/10/11 00:41:07;;;;;;;10.10;9.50;;;;;;;12.13;91.91;93468.38;5070538;28;20690;-78
2023/10/11 00:43:41;;;;;;;10.03;9.43;;;;;;;12.06;91.86;93473.13;5071394;28;20279;-78
2023/10/11 00:46:08;;;;;;;10.30;9.70;;;;;;;11.99;92.17;93475.22;5071740;28;20264;-78
2023/10/11 00:48:51;;;;;;;10.00;9.50;;;;;;;12.03;92.05;93471.81;5070042;28;20229;-77
2023/10/11 00:51:18;;;;;;;10.27;9.70;;;;;;;11.91;92.52;93473.16;5069645;28;20199;-77
2023/10/11 00:53:44;;;;;;;9.80;9.13;;;;;;;11.92;92.81;93477.34;5070313;28;20217;-77
2023/10/11 00:56:09;;;;;;;10.13;9.63;;;;;;;11.89;93.06;93477.88;5071513;28;20200;-78
2023/10/11 00:58:38;;;;;;;9.77;9.27;;;;;;;11.92;93.04;93487.81;5070927;28;20227;-77
2023/10/11 01:01:04;;;;;;;11.63;10.93;;;;;;;11.83;93.29;93489.41;5071272;28;20297;-77
2023/10/11 01:03:33;;;;;;;10.10;9.50;;;;;;;11.72;94.43;93478.16;5071442;28;20231;-77
2023/10/11 01:06:00;;;;;;;10.40;9.70;;;;;;;11.79;94.02;93488.34;5063436;28;20696;-77
2023/10/11 01:08:27;;;;;;;9.77;9.27;;;;;;;11.72;94.54;93477.41;5061104;28;20228;-78
2023/10/11 01:10:52;;;;;;;10.13;9.47;;;;;;;11.84;94.36;93476.06;5064501;28;20197;-78
2023/10/11 01:13:18;;;;;;;11.17;10.63;;;;;;;11.83;93.75;93469.25;5070731;28;20232;-77
2023/10/11 01:15:44;;;;;;;12.37;11.17;;;;;;;11.79;94.41;93472.66;5070483;28;20190;-76
2023/10/11 01:18:12;;;;;;;10.73;10.10;;;;;;;11.80;94.71;93471.63;5070429;28;20276;-77
2023/10/11 01:20:40;;;;;;;10.47;9.87;;;;;;;11.80;94.34;93477.63;5070668;28;20203;-76
2023/10/11 01:23:06;;;;;;;10.70;9.87;;;;;;;11.82;93.80;93469.50;5070404;28;20362;-78
2023/10/11 01:25:31;;;;;;;11.17;10.17;;;;;;;11.88;93.82;93474.47;5069043;28;20180;-79
2023/10/11 01:27:57;;;;;;;11.13;10.37;;;;;;;11.81;94.36;93462.72;5065997;28;20243;-78
2023/10/11 01:30:26;;;;;;;10.97;10.20;;;;;;;12.01;94.35;93479.16;5070074;28;20200;-78
2023/10/11 01:32:54;;;;;;;9.90;9.27;;;;;;;12.28;92.83;93486.69;5070967;28;20239;-77
2023/10/11 01:35:20;;;;;;;10.23;9.37;;;;;;;12.33;92.34;93494.50;5066558;28;20193;-77
2023/10/11 01:37:49;;;;;;;10.30;9.70;;;;;;;12.40;92.08;93495.03;5080920;28;20210;-77
2023/10/11 01:40:20;;;;;;;9.80;9.10;;;;;;;12.44;91.92;93483.75;5068440;28;20207;-77
2023/10/11 01:42:52;;;;;;;10.77;10.17;;;;;;;12.38;92.69;93492.66;5065208;28;20681;-77
2023/10/11 01:45:19;;;;;;;9.73;9.03;;;;;;;12.38;92.97;93494.50;5052727;28;20214;-77
2023/10/11 01:47:46;;;;;;;10.30;9.70;;;;;;;12.47;92.76;93500.75;5062814;28;20253;-77
2023/10/11 01:50:13;;;;;;;12.00;11.20;;;;;;;12.55;91.58;93503.59;5070760;28;20207;-78
2023/10/11 01:52:40;;;;;;;11.40;10.80;;;;;;;12.67;92.13;93511.13;5069046;28;20189;-78
2023/10/11 01:55:06;;;;;;;9.87;9.33;;;;;;;12.73;91.73;93504.84;5067968;28;20190;-77
2023/10/11 01:57:32;;;;;;;11.33;10.47;;;;;;;12.71;91.63;93509.56;5069521;28;20186;-78
2023/10/11 01:59:58;;;;;;;10.60;10.00;;;;;;;12.63;92.03;93510.13;5069248;28;20232;-78
2023/10/11 02:02:27;;;;;;;11.57;10.87;;;;;;;12.53;92.62;93505.69;5069740;28;20178;-77
2023/10/11 02:04:57;;;;;;;10.73;10.13;;;;;;;12.61;92.37;93505.16;5074037;28;20213;-78
2023/10/11 02:07:23;;;;;;;11.23;10.53;;;;;;;12.55;92.57;93508.06;5063598;28;20218;-78
2023/10/11 02:09:48;;;;;;;11.60;10.80;;;;;;;12.35;94.18;93506.31;5070701;28;20237;-78
2023/10/11 02:12:17;;;;;;;11.37;10.57;;;;;;;12.45;93.60;93498.38;5063384;28;20243;-78
2023/10/11 02:14:44;;;;;;;11.93;10.93;;;;;;;12.43;93.92;93513.63;5065593;28;20242;-78
2023/10/11 02:17:13;;;;;;;10.90;10.17;;;;;;;12.37;94.21;93506.03;5060052;28;20197;-78
2023/10/11 02:19:38;;;;;;;10.60;9.80;;;;;;;12.33;94.28;93511.00;5069106;28;20228;-78
2023/10/11 02:22:03;;;;;;;11.60;10.83;;;;;;;12.29;94.76;93509.19;5069870;28;20189;-78
2023/10/11 02:24:29;;;;;;;11.60;10.43;;;;;;;12.33;94.35;93512.84;5069326;28;20250;-78
2023/10/11 02:26:54;;;;;;;12.07;11.07;;;;;;;12.11;95.46;93502.69;5066146;28;20192;-78
2023/10/11 02:29:21;;;;;;;12.40;11.23;;;;;;;12.08;95.96;93507.66;5069215;28;20217;-78
2023/10/11 02:31:53;;;;;;;11.97;11.17;;;;;;;12.08;96.07;93512.91;5069765;28;20188;-78
2023/10/11 02:34:19;;;;;;;10.67;10.00;;;;;;;12.14;95.64;93522.34;5070725;28;20273;-78
2023/10/11 02:36:55;;;;;;;11.63;10.83;;;;;;;12.08;95.87;93525.97;5068464;28;20185;-78
2023/10/11 02:39:21;;;;;;;11.90;11.00;;;;;;;12.00;96.43;93519.47;5068936;28;20255;-78
2023/10/11 02:41:51;;;;;;;11.63;10.77;;;;;;;12.01;96.51;93520.25;5067575;28;20178;-78
2023/10/11 02:44:22;;;;;;;12.27;11.20;;;;;;;11.96;96.66;93526.28;5068987;28;20251;-80
2023/10/11 02:46:49;;;;;;;11.47;10.70;;;;;;;11.94;96.67;93530.22;5068359;28;20217;-78
2023/10/11 02:49:20;;;;;;;11.03;10.23;;;;;;;11.98;96.55;93531.25;5068305;28;20954;-78
2023/10/11 02:51:54;;;;;;;10.83;10.13;;;;;;;11.99;96.28;93530.19;5068351;28;20181;-77
2023/10/11 02:54:20;;;;;;;11.43;10.63;;;;;;;11.93;95.81;93510.31;5066590;28;20219;-78
2023/10/11 02:56:48;;;;;;;11.53;10.67;;;;;;;11.82;95.90;93516.59;5069109;28;20219;-77
2023/10/11 02:59:23;;;;;;;10.97;10.27;;;;;;;11.88;95.84;93531.25;5060080;28;20213;-78
2023/10/11 03:02:03;;;;;;;11.63;10.90;;;;;;;11.86;95.75;93521.03;5068959;28;20910;-77
2023/10/11 03:04:32;;;;;;;11.27;10.43;;;;;;;11.88;95.43;93531.25;5069270;28;20274;-86
2023/10/11 03:07:00;;;;;;;11.77;10.93;;;;;;;12.00;95.13;93531.78;5073280;28;20256;-85
2023/10/11 03:09:27;;;;;;;11.43;10.63;;;;;;;11.81;95.51;93523.69;5063659;28;20213;-86
2023/10/11 03:11:56;;;;;;;11.30;10.60;;;;;;;11.70;96.06;93531.81;5069682;28;20209;-84
2023/10/11 03:14:22;;;;;;;10.50;9.90;;;;;;;11.26;99.15;93537.50;5073431;28;20227;-84
2023/10/11 03:16:55;;;;;;;10.80;10.20;;;;;;;11.44;99.14;93548.50;5073709;28;20249;-86
2023/10/11 03:19:22;;;;;;;11.07;10.47;;;;;;;11.06;100.00;93542.69;5068548;28;20280;-86
2023/10/11 03:21:53;;;;;;;11.50;10.70;;;;;;;11.19;100.00;93552.63;5069745;28;20180;-85
2023/10/11 03:24:20;;;;;;;11.70;10.80;;;;;;;11.42;98.51;93547.97;5066369;28;20210;-84
2023/10/11 03:26:48;;;;;;;12.40;11.27;;;;;;;11.45;98.37;93552.69;5071279;28;20177;-86
2023/10/11 03:29:17;;;;;;;11.97;10.97;;;;;;;11.42;98.38;93553.19;5067704;28;20232;-87
2023/10/11 03:31:43;;;;;;;11.47;10.57;;;;;;;11.26;97.93;93542.72;5044749;28;20182;-86
2023/10/11 03:34:14;;;;;;;12.37;11.27;;;;;;;11.30;98.92;93558.66;5060596;28;20221;-81
2023/10/11 03:36:51;;;;;;;12.20;11.30;;;;;;;11.25;98.33;93562.06;5068982;28;20186;-86
2023/10/11 03:39:28;;;;;;;12.17;11.37;;;;;;;10.96;100.00;93550.50;5062094;28;20226;-86
2023/10/11 03:42:17;;;;;;;13.17;12.07;;;;;;;10.94;100.00;93557.03;5069694;28;20193;-85
2023/10/11 03:44:45;;;;;;;12.93;11.80;;;;;;;10.98;100.00;93564.09;5073884;28;20284;-86
2023/10/11 03:47:14;;;;;;;12.20;11.33;;;;;;;10.96;100.00;93568.78;5067437;28;20206;-86
2023/10/11 03:52:16;;;;;;;19.67;11.53;;;;;;;10.97;99.18;93575.56;5066065;28;20210;-82
2023/10/11 03:54:42;;;;;;;12.30;11.10;;;;;;;11.00;99.01;93575.06;5075837;28;20252;-83
2023/10/11 03:57:07;;;;;;;12.27;11.20;;;;;;;11.10;97.95;93576.91;5068349;28;20186;-88
2023/10/11 03:59:38;;;;;;;13.43;12.13;;;;;;;11.01;98.19;93573.25;5071816;28;20229;-89
2023/10/11 04:02:04;;;;;;;13.33;12.07;;;;;;;10.96;99.08;93571.41;5064791;28;20256;-87
2023/10/11 04:04:30;;;;;;;16.97;13.67;;;;;;;11.12;98.73;93573.03;5067448;28;20887;-89
2023/10/11 04:07:01;;;;;;;15.30;14.03;;;;;;;11.23;98.71;93579.84;5075083;28;20198;-81
2023/10/11 04:12:10;;;;;;;13.77;11.73;;;;;;;11.17;99.14;93586.09;5069660;28;20177;-79
2023/10/11 04:14:40;;;;;;;13.43;12.23;;;;;;;11.22;99.20;93593.19;5060908;28;20225;-82
2023/10/11 04:19:53;;;;;;;13.30;12.40;;;;;;;11.23;99.26;93598.16;5077386;28;20250;-81
2023/10/11 04:22:23;;;;;;;14.00;13.00;;;;;;;11.11;99.79;93592.34;5071827;28;20187;-82
2023/10/11 04:24:53;;;;;;;13.10;12.07;;;;;;;11.24;99.56;93604.94;5061825;28;20240;-86
2023/10/11 04:29:50;;;;;;;12.23;11.23;;;;;;;11.44;98.30;93608.66;5071041;28;20259;-81
2023/10/11 04:32:40;;;;;;;15.07;13.43;;;;;;;11.52;98.38;93608.91;5066960;28;20959;-82
2023/10/11 04:35:02;;;;;;;15.40;14.20;;;;;;;11.57;99.11;93606.31;5059615;28;20229;-79
2023/10/11 04:37:28;;;;;;;14.37;13.30;;;;;;;11.54;99.07;93598.97;5073338;28;20359;-81
2023/10/11 04:40:01;;;;;;;14.37;13.07;;;;;;;11.56;99.02;93603.94;5065683;28;20221;-81
2023/10/11 04:42:29;;;;;;;13.27;11.73;;;;;;;11.70;98.47;93615.50;5072206;28;20186;-82
2023/10/11 04:44:56;;;;;;;14.37;13.27;;;;;;;11.75;98.46;93608.44;5053721;28;20242;-81
2023/10/11 04:47:23;;;;;;;13.57;12.30;;;;;;;11.61;98.85;93596.88;5070360;28;20174;-81
2023/10/11 04:49:55;;;;;;;14.57;13.27;;;;;;;11.67;98.53;93595.09;5066764;28;20229;-82
2023/10/11 04:52:23;;;;;;;13.80;12.40;;;;;;;11.83;98.69;93615.00;5067656;28;20254;-80
2023/10/11 04:54:54;;;;;;;18.33;13.13;;;;;;;11.73;99.86;93610.53;5061343;28;20359;-83
2023/10/11 04:57:40;;;;;;;14.00;13.00;;;;;;;11.73;100.00;93621.00;5065541;28;20192;-80
2023/10/11 05:00:08;;;;;;;13.57;12.27;;;;;;;11.80;99.71;93610.28;5064848;28;20265;-79
2023/10/11 05:02:36;;;;;;;14.17;13.17;;;;;;;11.98;99.27;93617.63;5069019;28;20170;-90
2023/10/11 05:05:05;;;;;;;15.03;13.83;;;;;;;12.10;98.66;93620.75;5089378;28;20224;-89
2023/10/11 05:07:32;;;;;;;21.40;13.20;;;;;;;11.80;100.00;93624.13;5086982;28;20186;-79
2023/10/11 05:10:22;;;;;;;14.07;12.97;;;;;;;12.02;99.12;93627.28;5075192;28;21122;-82
2023/10/11 05:12:47;;;;;;;18.37;13.67;;;;;;;12.10;98.40;93623.38;5067199;28;20185;-83
2023/10/11 05:15:15;;;;;;;14.10;12.90;;;;;;;12.28;97.99;93643.78;5069954;28;20204;-83
2023/10/11 05:17:41;;;;;;;15.60;13.90;;;;;;;12.19;98.05;93640.09;5069873;28;20177;-79
2023/10/11 05:20:22;;;;;;;15.80;14.23;;;;;;;12.31;97.41;93638.03;5070179;28;20194;-80
2023/10/11 05:22:49;;;;;;;16.60;13.00;;;;;;;12.32;97.12;93647.44;5070074;28;20190;-80
2023/10/11 05:27:49;;;;;;;14.17;12.77;;;;;;;12.41;96.88;93656.31;5057222;28;20174;-79
2023/10/11 05:30:32;;;;;;;15.60;13.90;;;;;;;12.12;97.76;93650.88;5068957;28;20220;-80
2023/10/11 05:52:09;;;;;;;15.20;12.47;;;;;;;13.28;91.42;93654.03;5041892;28;20211;-83
2023/10/11 05:54:37;;;;;;;20.73;13.03;;;;;;;13.31;91.70;93652.72;5066647;28;20213;-83
2023/10/11 05:57:06;;;;;;;15.40;12.77;;;;;;;13.50;90.29;93651.84;5059289;28;20181;-80
2023/10/11 05:59:37;;;;;;;16.00;14.33;;;;;;;13.27;90.33;93652.47;5079234;28;20247;-84
2023/10/11 06:02:18;;;;;;;18.27;14.27;;;;;;;13.18;90.41;93654.09;5070645;28;20236;-83
2023/10/11 06:04:45;;;;;;;24.50;14.03;;;;;;;13.36;90.15;93661.34;5063640;28;20296;-83
2023/10/11 06:07:15;;;;;;;21.10;14.43;;;;;;;13.72;88.49;93664.56;5069799;28;20216;-82
2023/10/11 06:09:46;;;;;;;14.87;13.40;;;;;;;13.33;89.73;93680.25;5051484;28;20225;-83
2023/10/11 06:12:28;;;;;;;16.03;14.50;;;;;;;13.46;89.68;93681.50;5052499;28;20186;-87
2023/10/11 06:14:54;;;;;;;14.43;13.03;;;;;;;13.18;90.63;93676.91;5064963;28;20228;-83
2023/10/11 06:17:32;;;;;;;16.87;14.67;;;;;;;13.07;91.38;93677.97;5069177;28;20182;-83
2023/10/11 06:20:17;;;;;;;20.93;14.27;;;;;;;12.96;91.15;93682.44;5068941;28;20232;-82
2023/10/11 06:22:42;;;;;;;15.77;14.00;;;;;;;12.94;90.97;93695.81;5067984;28;20184;-81
2023/10/11 06:25:08;;;;;;;20.23;14.13;;;;;;;13.11;89.82;93699.97;5047277;28;20182;-83
2023/10/11 06:30:17;;;;;;;20.07;14.97;;;;;;;13.27;89.28;93710.16;5061468;28;20281;-82
2023/10/11 06:32:43;;;;;;;15.57;14.07;;;;;;;13.53;89.72;93716.09;5057281;28;20197;-83
2023/10/11 06:35:16;;;;;;;22.83;16.23;;;;;;;13.38;89.93;93718.78;5034598;28;20209;-78
2023/10/11 06:37:42;;;;;;;16.47;13.97;;;;;;;13.69;86.50;93718.41;5058939;28;20208;-82
2023/10/11 06:40:08;;;;;;;23.07;13.80;;;;;;;13.85;86.62;93722.50;5054423;28;20181;-79
2023/10/11 06:42:33;;;;;;;15.73;14.23;;;;;;;13.76;86.55;93734.63;5051923;28;20186;-83
2023/10/11 06:45:05;;;;;;;14.97;13.47;;;;;;;13.56;85.14;93703.22;5059458;28;20241;-84
2023/10/11 06:47:35;;;;;;;19.97;13.93;;;;;;;13.78;85.40;93737.78;5060942;28;20211;-81
2023/10/11 06:50:11;;;;;;;15.57;14.10;;;;;;;13.42;86.17;93735.53;5055911;28;20226;-84
2023/10/11 06:52:44;;;;;;;21.83;13.50;;;;;;;13.91;83.82;93739.81;5055926;28;20269;-80
2023/10/11 06:55:17;;;;;;;17.07;14.20;;;;;;;14.07;82.88;93743.91;5037810;28;20198;-83
2023/10/11 06:57:56;;;;;;;18.40;14.13;;;;;;;13.67;85.37;93740.69;5041960;28;20182;-83
2023/10/11 07:00:24;;;;;;;14.57;12.97;;;;;;;14.07;82.50;93740.50;5061219;28;20186;-80
2023/10/11 07:05:56;;;;;;;14.43;13.00;;;;;;;14.95;78.02;93741.16;5063784;28;20205;-83
2023/10/11 07:08:31;;;;;;;14.63;13.13;;;;;;;14.81;78.88;93737.63;5068959;28;20252;-84
2023/10/11 07:11:03;;;;;;;20.93;13.67;;;;;;;14.33;80.26;93718.31;5063777;28;20189;-84
2023/10/11 07:16:13;;;;;;;12.83;11.50;;;;;;;14.86;77.07;93732.31;5048918;28;20562;-82
2023/10/11 07:18:43;;;;;;;12.07;11.00;;;;;;;14.79;76.22;93721.31;5051558;28;20241;-81
2023/10/11 07:21:09;;;;;;;11.53;10.57;;;;;;;14.56;76.90;93719.44;5046472;28;20213;-82
2023/10/11 07:26:23;;;;;;;12.70;11.60;;;;;;;14.66;77.56;93716.72;5042277;28;20285;-82
2023/10/11 07:28:52;;;;;;;13.13;10.43;;;;;;;14.76;76.19;93711.38;5038622;28;20311;-82
2023/10/11 07:31:35;;;;;;;16.37;11.63;;;;;;;14.67;75.69;93697.25;5031674;28;20262;-82
2023/10/11 07:34:05;;;;;;;11.83;10.90;;;;;;;14.70;75.92;93712.47;5046326;28;20245;-82
2023/10/11 07:36:37;;;;;;;11.87;10.90;;;;;;;14.66;76.46;93706.22;5042792;28;20185;-82
2023/10/11 07:41:44;;;;;;;11.33;10.53;;;;;;;14.56;76.74;93686.06;5045773;28;20184;-82
2023/10/11 07:44:10;;;;;;;12.17;11.30;;;;;;;14.79;75.81;93687.94;5042876;28;20274;-82
2023/10/11 07:46:39;;;;;;;12.73;11.73;;;;;;;14.96;75.08;93700.69;5052417;28;20330;-82
2023/10/11 07:49:14;;;;;;;15.20;11.40;;;;;;;14.90;75.72;93705.19;5044743;28;20240;-82
2023/10/11 07:51:39;;;;;;;12.60;11.40;;;;;;;15.01;75.46;93716.38;5047810;28;20193;-84
2023/10/11 07:54:11;;;;;;;13.13;11.93;;;;;;;15.02;74.83;93726.63;5052599;28;20222;-81
2023/10/11 07:56:38;;;;;;;11.77;10.87;;;;;;;15.11;74.45;93721.56;5049665;28;20254;-82
2023/10/11 07:59:12;;;;;;;12.93;11.67;;;;;;;15.05;75.76;93722.69;5051692;28;20225;-81
2023/10/11 08:01:44;;;;;;;11.83;11.03;;;;;;;15.22;74.17;93733.56;5052484;28;20208;-83
2023/10/11 08:04:18;;;;;;;14.70;11.50;;;;;;;15.48;73.31;93743.56;5051761;28;20221;-83
2023/10/11 08:06:44;;;;;;;13.43;12.17;;;;;;;15.28;72.95;93741.13;5052852;28;20192;-84
2023/10/11 08:09:18;;;;;;;13.03;11.70;;;;;;;15.54;73.51;93744.28;5050559;28;20222;-84
2023/10/11 08:11:56;;;;;;;12.57;11.37;;;;;;;15.83;71.37;93743.13;5051610;28;20185;-83
2023/10/11 08:14:28;;;;;;;14.77;10.97;;;;;;;15.59;72.17;93754.75;5050898;28;20320;-78
2023/10/11 08:16:59;;;;;;;12.37;11.17;;;;;;;15.21;73.07;93755.63;5038903;28;20182;-84
2023/10/11 08:19:27;;;;;;;13.53;12.27;;;;;;;14.62;74.65;93742.78;5051828;28;20217;-83
2023/10/11 08:21:57;;;;;;;12.10;10.90;;;;;;;14.83;74.99;93759.16;5052710;28;20224;-84
2023/10/11 08:24:25;;;;;;;12.30;11.20;;;;;;;14.74;75.21;93763.47;5051769;28;20202;-84
2023/10/11 08:27:07;;;;;;;13.50;12.30;;;;;;;14.93;75.07;93759.06;5046133;28;20191;-81
2023/10/11 08:29:33;;;;;;;12.73;11.73;;;;;;;15.19;73.28;93765.69;5044777;28;20228;-82
2023/10/11 08:31:59;;;;;;;13.37;12.27;;;;;;;15.47;72.66;93759.63;5039717;28;20199;-80
2023/10/11 08:34:26;;;;;;;13.00;11.83;;;;;;;15.62;71.58;93767.34;5051964;28;20226;-82
2023/10/11 08:36:55;;;;;;;14.83;12.37;;;;;;;15.54;72.75;93760.84;5052043;28;20186;-83
2023/10/11 08:39:44;;;;;;;15.47;12.10;;;;;;;15.30;72.43;93762.66;5050408;28;20264;-86
2023/10/11 08:42:19;;;;;;;12.10;11.13;;;;;;;15.19;73.87;93758.56;5052181;28;20182;-84
2023/10/11 08:44:45;;;;;;;12.37;11.30;;;;;;;15.20;74.02;93756.72;5051475;28;20264;-84
2023/10/11 08:47:16;;;;;;;13.33;11.60;;;;;;;15.55;72.58;93754.53;5044560;28;20174;-82
2023/10/11 08:49:46;;;;;;;12.43;11.03;;;;;;;15.39;72.84;93752.34;5041607;28;20248;-81
2023/10/11 08:52:17;;;;;;;15.63;11.87;;;;;;;15.50;72.45;93753.81;5049275;28;20174;-84
2023/10/11 08:54:44;;;;;;;14.50;12.67;;;;;;;15.27;72.89;93750.06;5051610;28;20230;-82
2023/10/11 08:57:13;;;;;;;12.70;11.70;;;;;;;15.26;73.17;93748.50;5051617;28;20229;-83
2023/10/11 08:59:58;;;;;;;13.83;12.23;;;;;;;15.25;72.93;93740.88;5047428;28;20210;-83
2023/10/11 09:02:28;;;;;;;13.47;12.40;;;;;;;15.36;73.55;93742.34;5045075;28;20194;-83
2023/10/11 09:05:06;;;;;;;13.87;12.60;;;;;;;15.75;71.12;93756.16;5047651;28;20209;-82
2023/10/11 09:07:48;;;;;;;14.23;11.50;;;;;;;15.60;71.34;93758.94;5044150;28;20182;-82
2023/10/11 09:10:28;;;;;;;13.30;12.03;;;;;;;15.14;73.10;93740.22;5048760;28;20585;-84
2023/10/11 09:12:58;;;;;;;13.57;12.47;;;;;;;15.37;72.52;93755.22;5050938;28;20194;-84
2023/10/11 09:15:45;;;;;;;14.53;11.67;;;;;;;15.74;72.42;93755.34;5050269;28;20254;-84
2023/10/11 09:18:15;;;;;;;12.80;11.60;;;;;;;16.11;70.62;93764.38;5041121;28;20241;-83
2023/10/11 09:20:49;;;;;;;15.30;12.23;;;;;;;16.18;69.67;93760.31;5042796;28;20192;-85
2023/10/11 09:23:20;;;;;;;13.70;12.40;;;;;;;15.71;72.15;93757.75;5048454;28;20225;-83
2023/10/11 09:25:57;;;;;;;15.90;12.40;;;;;;;16.05;70.00;93750.47;5044184;28;20198;-82
2023/10/11 09:28:26;;;;;;;13.07;11.73;;;;;;;16.49;68.45;93761.50;5042370;28;20233;-83
2023/10/11 09:31:12;;;;;;;13.10;11.90;;;;;;;16.70;67.61;93746.91;5051219;28;20190;-82
2023/10/11 09:33:47;;;;;;;12.60;11.43;;;;;;;16.80;65.99;93752.03;5045658;28;20225;-82
2023/10/11 09:36:15;;;;;;;14.37;12.87;;;;;;;16.68;67.49;93749.09;5043332;28;20200;-80
2023/10/11 09:38:41;;;;;;;12.70;11.60;;;;;;;16.65;67.86;93748.88;5047844;28;20222;-79
2023/10/11 09:41:08;;;;;;;12.27;11.27;;;;;;;16.77;67.41;93744.72;5051076;28;20221;-80
2023/10/11 09:43:44;;;;;;;12.67;11.57;;;;;;;16.70;68.03;93740.88;5035049;28;20241;-79
2023/10/11 09:46:13;;;;;;;12.20;10.80;;;;;;;17.02;66.07;93739.03;5041336;28;20222;-80
2023/10/11 09:48:42;;;;;;;12.57;11.47;;;;;;;17.07;65.84;93738.94;5032522;28;20215;-79
2023/10/11 09:51:14;;;;;;;12.00;11.07;;;;;;;17.20;64.91;93745.28;5041274;28;20221;-80
2023/10/11 09:53:49;;;;;;;11.30;10.20;;;;;;;17.33;64.66;93739.25;5043473;28;20218;-79
2023/10/11 09:56:32;;;;;;;14.97;11.57;;;;;;;17.18;64.54;93742.94;5050880;28;20201;-80
2023/10/11 09:59:10;;;;;;;11.93;10.97;;;;;;;17.14;65.21;93749.88;5040100;28;20305;-78
2023/10/11 10:01:49;;;;;;;11.87;10.63;;;;;;;16.90;65.55;93738.69;5046264;28;20190;-80
2023/10/11 10:04:20;;;;;;;12.13;11.03;;;;;;;17.13;64.48;93735.13;5045013;28;20226;-79
2023/10/11 10:07:12;;;;;;;12.43;11.33;;;;;;;17.20;64.39;93730.25;5044901;28;20217;-79
2023/10/11 10:09:52;;;;;;;12.50;11.53;;;;;;;17.30;63.71;93730.06;5042530;28;20255;-79
2023/10/11 10:12:22;;;;;;;11.17;10.27;;;;;;;17.31;64.49;93721.06;5049599;28;20174;-80
2023/10/11 10:15:15;;;;;;;12.33;11.23;;;;;;;17.51;63.29;93720.72;5050137;28;20226;-80
2023/10/11 10:18:03;;;;;;;11.40;10.47;;;;;;;17.47;64.34;93714.47;5042770;28;20193;-79
2023/10/11 10:20:49;;;;;;;11.17;10.37;;;;;;;17.66;62.97;93716.22;5047591;28;20198;-79
2023/10/11 10:23:14;;;;;;;12.07;11.17;;;;;;;17.78;61.58;93708.56;5049449;28;20281;-78
2023/10/11 10:26:15;;;;;;;11.40;10.60;;;;;;;17.60;62.20;93707.63;5046547;28;21922;-79
2023/10/11 10:28:45;;;;;;;10.73;9.97;;;;;;;17.70;62.77;93704.00;5043639;28;20240;-79
2023/10/11 10:31:17;;;;;;;11.60;10.77;;;;;;;17.90;61.58;93700.94;5042046;28;20187;-79
2023/10/11 10:33:51;;;;;;;14.83;10.90;;;;;;;17.98;61.11;93700.25;5036964;28;20264;-77
2023/10/11 10:36:28;;;;;;;12.17;11.03;;;;;;;17.93;61.67;93703.75;5049745;28;20214;-77
2023/10/11 10:38:59;;;;;;;11.73;10.73;;;;;;;17.94;61.49;93691.31;5044132;28;20229;-77
2023/10/11 10:41:31;;;;;;;11.10;10.27;;;;;;;18.09;60.75;93691.78;5040320;28;20790;-77
2023/10/11 10:44:04;;;;;;;12.97;11.27;;;;;;;17.82;61.71;93691.06;5045494;28;20233;-78
2023/10/11 10:46:32;;;;;;;11.03;10.23;;;;;;;17.82;62.22;93683.13;5037325;28;20229;-77
2023/10/11 10:48:58;;;;;;;12.20;11.23;;;;;;;18.03;61.46;93685.03;5037963;28;20237;-77
2023/10/11 10:51:27;;;;;;;11.20;10.20;;;;;;;18.11;60.86;93681.69;5036299;28;20170;-77
2023/10/11 10:53:54;;;;;;;13.00;12.00;;;;;;;18.23;59.70;93678.50;5049045;28;20228;-78
2023/10/11 10:56:26;;;;;;;13.10;11.80;;;;;;;18.31;59.68;93675.94;5046001;28;20181;-77
2023/10/11 10:59:11;;;;;;;11.10;10.30;;;;;;;18.74;59.20;93679.69;5045783;28;20249;-76
2023/10/11 11:01:38;;;;;;;10.93;10.23;;;;;;;19.01;56.54;93676.13;5049319;28;20191;-76
2023/10/11 11:04:07;;;;;;;13.03;11.37;;;;;;;19.09;56.35;93676.16;5047095;28;20284;-77
2023/10/11 11:06:47;;;;;;;12.47;11.13;;;;;;;18.98;57.02;93679.38;5049274;28;20187;-77
2023/10/11 11:09:28;;;;;;;11.60;10.67;;;;;;;18.46;58.12;93672.22;5047890;28;20248;-78
2023/10/11 11:12:09;;;;;;;11.07;10.27;;;;;;;18.42;58.25;93669.38;5047905;28;20191;-77
2023/10/11 11:14:34;;;;;;;11.53;10.63;;;;;;;18.82;57.87;93671.03;5047797;28;20215;-77
2023/10/11 11:17:00;;;;;;;11.57;10.67;;;;;;;18.75;57.75;93670.69;5046507;28;20235;-78
2023/10/11 11:19:26;;;;;;;12.50;11.53;;;;;;;19.02;55.91;93670.50;5039741;28;20211;-77
2023/10/11 11:22:12;;;;;;;11.80;10.70;;;;;;;19.12;56.13;93674.78;5034760;28;20201;-77
2023/10/11 11:24:38;;;;;;;10.87;10.07;;;;;;;19.14;57.79;93667.31;5035910;28;20245;-77
2023/10/11 11:27:18;;;;;;;10.73;10.03;;;;;;;19.35;54.33;93676.28;5035753;28;20198;-76
2023/10/11 11:29:47;;;;;;;10.53;9.93;;;;;;;19.38;55.06;93675.69;5037106;28;20222;-78
2023/10/11 11:32:16;;;;;;;11.57;10.47;;;;;;;19.42;54.50;93673.22;5050569;28;20249;-78
2023/10/11 11:35:10;;;;;;;10.70;10.00;;;;;;;19.67;53.50;93665.34;5039127;28;20301;-77
2023/10/11 11:38:01;;;;;;;10.97;10.23;;;;;;;19.84;53.15;93672.56;5040406;28;20187;-74
2023/10/11 11:40:26;;;;;;;11.27;10.20;;;;;;;19.63;54.84;93668.91;5033759;28;20188;-77
2023/10/11 11:42:52;;;;;;;11.33;10.53;;;;;;;19.98;53.84;93666.03;5033651;28;20223;-77
2023/10/11 11:45:18;;;;;;;11.40;10.40;;;;;;;19.95;52.42;93665.88;5041070;28;20212;-77
2023/10/11 11:47:56;;;;;;;10.97;10.27;;;;;;;19.72;53.39;93665.19;5048094;28;20196;-77
2023/10/11 11:50:33;;;;;;;11.03;10.13;;;;;;;19.70;54.48;93654.13;5038618;28;20235;-78
2023/10/11 11:53:39;;;;;;;10.53;9.63;;;;;;;19.71;53.49;93660.97;5045896;28;20238;-78
2023/10/11 11:56:54;;;;;;;11.00;10.03;;;;;;;18.98;55.01;93650.25;5034935;28;20965;-78
2023/10/11 12:00:26;;;;;;;12.13;11.13;;;;;;;18.67;56.54;93641.53;5044392;28;20416;-78
2023/10/11 12:03:04;;;;;;;10.70;10.00;;;;;;;18.64;56.41;93642.94;5045202;28;20210;-78
2023/10/11 12:05:43;;;;;;;11.37;10.27;;;;;;;19.04;55.45;93644.53;5043576;28;20180;-80
2023/10/11 12:08:35;;;;;;;10.30;9.67;;;;;;;19.17;54.80;93648.16;5029461;28;20225;-78
2023/10/11 12:11:45;;;;;;;10.73;9.83;;;;;;;19.13;54.03;93641.91;5039995;28;20192;-79
2023/10/11 12:14:42;;;;;;;10.20;9.30;;;;;;;19.29;53.65;93643.09;5047135;28;20219;-80
2023/10/11 12:17:11;;;;;;;11.60;10.27;;;;;;;19.34;53.15;93652.75;5041096;28;20196;-80
2023/10/11 12:19:37;;;;;;;10.27;9.67;;;;;;;19.21;52.76;93649.09;5069867;28;20257;-80
2023/10/11 12:22:03;;;;;;;10.37;9.67;;;;;;;19.32;53.71;93647.78;5047684;28;20188;-80
2023/10/11 12:24:29;;;;;;;9.93;9.00;;;;;;;18.93;53.61;93651.16;5048724;28;20235;-80
2023/10/11 12:26:57;;;;;;;10.57;9.53;;;;;;;18.88;54.93;93646.00;5046483;28;20206;-79